createdAt,value
2022-11-05T00:00:50.588Z,6.30
2022-11-05T00:03:36.437Z,6.20
2022-11-05T00:06:22.454Z,4.90
2022-11-05T00:09:08.270Z,5.40
2022-11-05T00:11:54.653Z,6.00
2022-11-05T00:14:44.543Z,6.40
2022-11-05T00:17:11.570Z,6.40
2022-11-05T00:19:38.859Z,6.10
2022-11-05T00:22:28.868Z,7.00
2022-11-05T00:25:14.136Z,6.80
2022-11-05T00:27:48.705Z,5.60
2022-11-05T00:30:18.527Z,6.40
2022-11-05T00:32:46.451Z,6.50
2022-11-05T00:35:13.685Z,6.10
2022-11-05T00:37:44.343Z,6.60
2022-11-05T00:40:14.822Z,7.30
2022-11-05T00:43:01.724Z,8.20
2022-11-05T00:45:29.989Z,8.00
2022-11-05T00:48:15.443Z,7.30
2022-11-05T00:50:42.720Z,8.10
2022-11-05T00:53:10.412Z,7.70
2022-11-05T00:55:38.381Z,7.90
2022-11-05T00:58:07.593Z,7.80
2022-11-05T01:03:04.630Z,7.70
2022-11-05T01:07:59.156Z,7.30
2022-11-05T01:10:26.486Z,6.10
2022-11-05T01:12:54.943Z,7.00
2022-11-05T01:15:22.016Z,6.10
2022-11-05T01:17:50.906Z,8.10
2022-11-05T01:20:17.982Z,7.50
2022-11-05T01:22:45.280Z,7.50
2022-11-05T01:25:12.445Z,8.00
2022-11-05T01:27:39.988Z,7.60
2022-11-05T01:30:08.749Z,7.80
2022-11-05T01:32:37.852Z,8.10
2022-11-05T01:35:06.404Z,7.80
2022-11-05T01:37:34.624Z,7.40
2022-11-05T01:40:02.270Z,7.70
2022-11-05T01:42:33.205Z,6.60
2022-11-05T01:45:20.178Z,6.90
2022-11-05T01:47:58.021Z,6.30
2022-11-05T01:50:35.047Z,7.20
2022-11-05T01:53:39.631Z,8.00
2022-11-05T01:56:16.111Z,7.80
2022-11-05T01:58:46.321Z,7.20
2022-11-05T02:01:13.173Z,8.00
2022-11-05T02:03:40.227Z,7.00
2022-11-05T02:06:09.628Z,5.80
2022-11-05T02:09:00.223Z,6.30
2022-11-05T02:11:27.371Z,5.90
2022-11-05T02:13:55.150Z,6.10
2022-11-05T02:16:38.941Z,6.90
2022-11-05T02:19:24.757Z,5.60
2022-11-05T02:22:14.654Z,6.00
2022-11-05T02:24:57.049Z,6.40
2022-11-05T02:27:51.541Z,5.40
2022-11-05T02:30:37.522Z,6.10
2022-11-05T02:33:16.126Z,6.20
2022-11-05T02:35:50.172Z,6.60
2022-11-05T02:38:39.576Z,6.90
2022-11-05T02:41:09.220Z,7.70
2022-11-05T02:43:38.113Z,7.60
2022-11-05T02:46:19.091Z,8.60
2022-11-05T02:49:04.193Z,7.90
2022-11-05T02:51:57.362Z,6.90
2022-11-05T02:54:44.596Z,7.00
2022-11-05T02:57:11.720Z,7.50
2022-11-05T02:59:38.554Z,8.30
2022-11-05T03:02:05.907Z,6.70
2022-11-05T03:04:33.357Z,7.30
2022-11-05T03:07:00.286Z,7.70
2022-11-05T03:10:00.636Z,7.80
2022-11-05T03:12:43.328Z,7.70
2022-11-05T03:15:29.315Z,6.90
2022-11-05T03:18:11.843Z,6.40
2022-11-05T03:20:52.473Z,4.70
2022-11-05T03:23:26.794Z,5.00
2022-11-05T03:26:02.973Z,4.00
2022-11-05T03:28:34.692Z,4.10
2022-11-05T03:31:01.986Z,4.90
2022-11-05T03:33:30.366Z,4.60
2022-11-05T03:36:00.101Z,5.30
2022-11-05T03:41:05.636Z,4.30
2022-11-05T03:43:35.326Z,5.30
2022-11-05T03:46:05.140Z,3.30
2022-11-05T03:48:32.483Z,4.20
2022-11-05T03:51:03.327Z,4.20
2022-11-05T03:53:32.419Z,3.60
2022-11-05T03:56:07.076Z,4.80
2022-11-05T03:58:33.838Z,4.50
2022-11-05T04:01:02.382Z,4.40
2022-11-05T04:03:36.623Z,4.80
2022-11-05T04:06:26.784Z,4.10
2022-11-05T04:09:25.670Z,3.80
2022-11-05T04:12:11.809Z,3.10
2022-11-05T04:14:39.741Z,3.40
2022-11-05T04:17:06.579Z,3.30
2022-11-05T04:20:07.597Z,3.70
2022-11-05T04:22:54.620Z,4.10
2022-11-05T04:25:21.924Z,3.40
2022-11-05T04:27:48.878Z,3.30
2022-11-05T04:30:19.407Z,2.70
2022-11-05T04:33:02.589Z,3.60
2022-11-05T04:35:40.507Z,2.60
2022-11-05T04:38:11.937Z,3.30
2022-11-05T04:40:40.288Z,3.90
2022-11-05T04:43:14.597Z,4.30
2022-11-05T04:45:42.618Z,4.90
2022-11-05T04:48:09.447Z,4.10
2022-11-05T04:50:39.358Z,3.40
2022-11-05T04:53:06.422Z,4.10
2022-11-05T04:55:35.189Z,3.70
2022-11-05T04:58:02.006Z,3.50
2022-11-05T05:00:29.342Z,3.90
2022-11-05T05:02:56.648Z,4.50
2022-11-05T05:05:24.190Z,4.20
2022-11-05T05:07:51.232Z,4.10
2022-11-05T05:10:18.428Z,3.30
2022-11-05T05:12:45.589Z,3.90
2022-11-05T05:15:13.897Z,3.50
2022-11-05T05:17:42.614Z,3.70
2022-11-05T05:20:29.988Z,3.60
2022-11-05T05:22:57.268Z,3.20
2022-11-05T05:25:24.220Z,3.80
2022-11-05T05:27:51.250Z,3.90
2022-11-05T05:30:19.273Z,3.10
2022-11-05T05:32:46.423Z,3.50
2022-11-05T05:35:14.232Z,3.60
2022-11-05T05:37:41.303Z,3.60
2022-11-05T05:40:09.035Z,4.30
2022-11-05T05:42:41.776Z,4.70
2022-11-05T05:45:11.527Z,4.60
2022-11-05T05:47:39.081Z,4.60
2022-11-05T05:50:06.354Z,3.30
2022-11-05T05:52:33.288Z,3.90
2022-11-05T05:55:01.351Z,3.50
2022-11-05T05:57:28.296Z,3.20
2022-11-05T10:18:27.182Z,12.70
2022-11-05T10:20:54.339Z,9.60
2022-11-05T10:23:21.967Z,8.20
2022-11-05T10:25:59.646Z,8.30
2022-11-05T10:28:28.616Z,8.40
2022-11-05T10:31:09.124Z,9.60
2022-11-05T10:33:39.615Z,9.20
2022-11-05T10:36:10.099Z,9.30
2022-11-05T10:38:36.929Z,8.90
2022-11-05T10:47:18.859Z,7.50
2022-11-05T10:49:59.262Z,7.50
2022-11-05T10:52:30.943Z,7.60
2022-11-05T10:55:00.549Z,10.10
2022-11-05T10:57:40.334Z,10.50
2022-11-05T11:00:26.491Z,10.40
2022-11-05T11:02:59.413Z,7.30
2022-11-05T11:05:31.850Z,6.90
2022-11-05T11:08:04.936Z,8.10
2022-11-05T11:10:36.992Z,7.20
2022-11-05T11:13:03.846Z,8.00
2022-11-05T11:15:35.393Z,8.20
2022-11-05T11:18:42.157Z,8.30
2022-11-05T11:21:15.105Z,8.10
2022-11-05T11:23:43.477Z,8.90
2022-11-05T11:26:11.298Z,5.80
2022-11-05T11:28:40.591Z,5.90
2022-11-05T11:33:34.589Z,6.60
2022-11-05T11:36:02.101Z,6.60
2022-11-05T11:38:34.655Z,6.40
2022-11-05T11:41:13.969Z,9.20
2022-11-05T11:43:41.266Z,8.00
2022-11-05T11:46:22.893Z,8.20
2022-11-05T11:48:50.650Z,7.00
2022-11-05T11:51:41.521Z,7.30
2022-11-05T11:54:19.871Z,7.00
2022-11-05T11:56:47.889Z,6.60
2022-11-05T11:59:40.554Z,7.30
2022-11-05T12:02:21.807Z,7.30
2022-11-05T12:05:17.804Z,8.20
2022-11-05T12:07:53.545Z,9.60
2022-11-05T12:10:34.849Z,19.00
2022-11-05T12:13:07.917Z,13.00
2022-11-05T12:16:00.701Z,12.80
2022-11-05T12:19:18.295Z,8.30
2022-11-05T12:22:00.428Z,9.20
2022-11-05T12:24:53.451Z,9.30
2022-11-05T12:28:02.992Z,9.10
2022-11-05T12:30:49.105Z,9.10
2022-11-05T12:33:21.563Z,9.30
2022-11-05T12:36:07.760Z,6.60
2022-11-05T12:38:37.287Z,6.90
2022-11-05T12:41:23.827Z,7.30
2022-11-05T12:43:51.091Z,6.30
2022-11-05T12:46:27.049Z,8.00
2022-11-05T12:49:05.949Z,7.30
2022-11-05T12:51:51.764Z,8.00
2022-11-05T12:54:33.613Z,8.90
2022-11-05T12:57:03.832Z,7.50
2022-11-05T12:59:35.689Z,7.60
2022-11-05T13:02:17.283Z,8.80
2022-11-05T13:04:50.513Z,8.00
2022-11-05T13:07:22.745Z,9.50
2022-11-05T13:10:28.246Z,10.10
2022-11-05T13:13:05.094Z,8.90
2022-11-05T13:18:30.304Z,8.70
2022-11-05T13:20:57.606Z,6.90
2022-11-05T13:23:35.746Z,7.40
2022-11-05T13:26:25.708Z,8.00
2022-11-05T13:29:08.450Z,8.10
2022-11-05T13:31:39.449Z,9.70
2022-11-05T13:34:11.221Z,9.10
2022-11-05T13:37:08.041Z,9.00
2022-11-05T13:40:09.792Z,9.70
2022-11-05T13:42:42.688Z,9.20
2022-11-05T13:45:28.579Z,9.10
2022-11-05T18:09:07.873Z,12.00
2022-11-05T18:11:38.190Z,8.80
2022-11-05T18:14:05.452Z,9.00
2022-11-05T18:16:33.709Z,9.40
2022-11-05T18:19:00.853Z,8.80
2022-11-05T18:21:28.031Z,11.00
2022-11-05T18:23:55.060Z,14.20
2022-11-05T18:26:22.101Z,12.20
2022-11-05T18:28:49.273Z,10.00
2022-11-05T18:31:18.592Z,9.60
2022-11-05T18:33:48.007Z,8.90
2022-11-05T18:38:45.442Z,12.30
2022-11-05T18:41:12.487Z,12.80
2022-11-05T18:43:40.143Z,12.60
2022-11-05T18:46:07.895Z,10.00
2022-11-05T18:48:35.748Z,8.40
2022-11-05T18:51:13.871Z,8.90
2022-11-05T18:53:43.371Z,8.60
2022-11-05T18:56:11.698Z,10.50
2022-11-05T18:58:40.444Z,9.90
2022-11-05T19:01:24.566Z,9.30
2022-11-05T19:03:51.950Z,12.60
2022-11-05T19:06:18.807Z,11.20
2022-11-05T19:08:47.284Z,9.50
2022-11-05T19:11:15.753Z,9.70
2022-11-05T19:13:43.519Z,9.60
2022-11-05T19:16:15.772Z,9.00
2022-11-05T19:18:43.530Z,9.40
2022-11-05T19:21:15.673Z,8.50
2022-11-05T19:23:44.892Z,11.00
2022-11-05T19:26:13.631Z,15.90
2022-11-05T19:28:40.747Z,19.10
2022-11-05T19:31:10.361Z,15.20
2022-11-05T19:33:38.736Z,16.80
2022-11-05T19:36:08.829Z,10.30
2022-11-05T19:38:36.211Z,10.30
2022-11-05T19:41:05.129Z,14.70
2022-11-05T19:43:34.789Z,11.70
2022-11-05T19:46:08.390Z,11.80
2022-11-05T19:48:35.954Z,11.80
2022-11-05T19:51:10.829Z,15.50
2022-11-05T19:53:39.113Z,13.80
2022-11-05T19:56:07.790Z,15.40
2022-11-05T19:58:35.802Z,9.90
2022-11-05T20:01:04.735Z,11.90
2022-11-05T20:03:33.472Z,12.40
2022-11-05T20:06:09.778Z,10.30
2022-11-05T20:08:47.780Z,12.10
2022-11-05T20:11:23.795Z,11.90
2022-11-05T20:13:50.999Z,9.60
2022-11-05T20:16:25.172Z,10.50
2022-11-05T20:18:52.247Z,9.30
2022-11-05T20:21:19.481Z,8.50
2022-11-05T20:23:47.684Z,7.40
2022-11-05T20:26:14.942Z,10.00
2022-11-05T20:28:43.841Z,11.40
2022-11-05T20:31:13.006Z,10.20
2022-11-05T20:33:40.939Z,10.70
2022-11-05T20:36:18.644Z,9.10
2022-11-05T20:38:48.746Z,10.10
2022-11-05T20:41:16.545Z,8.90
2022-11-05T20:46:14.552Z,9.60
2022-11-05T20:48:43.353Z,10.90
2022-11-05T20:51:12.709Z,9.90
2022-11-05T20:53:40.680Z,8.60
2022-11-05T20:56:10.474Z,9.60
2022-11-05T20:58:37.919Z,9.80
2022-11-05T21:01:05.227Z,11.40
2022-11-05T21:03:33.122Z,10.40
2022-11-05T21:06:04.212Z,12.90
2022-11-05T21:08:32.938Z,8.70
2022-11-05T21:11:00.238Z,7.90
2022-11-05T21:13:28.470Z,9.70
2022-11-05T21:15:57.296Z,8.20
2022-11-05T21:18:26.576Z,8.90
2022-11-05T21:20:54.795Z,9.80
2022-11-05T21:23:22.004Z,9.80
2022-11-05T21:25:48.991Z,9.00
2022-11-05T21:28:16.769Z,8.30
2022-11-05T21:30:49.273Z,8.00
2022-11-05T21:33:17.425Z,6.90
2022-11-05T21:35:45.844Z,7.10
2022-11-05T21:38:13.816Z,7.60
2022-11-05T21:40:41.245Z,8.60
2022-11-05T21:43:08.330Z,7.80
2022-11-05T21:45:36.745Z,8.80
2022-11-05T21:48:03.759Z,8.50
2022-11-05T21:50:49.617Z,8.30
2022-11-05T21:53:35.980Z,6.70
2022-11-05T21:56:26.843Z,7.40
2022-11-05T21:59:13.448Z,6.40
2022-11-05T22:01:40.367Z,7.10
2022-11-05T22:04:07.437Z,7.20
2022-11-05T22:06:35.291Z,7.50
2022-11-05T22:09:02.351Z,7.20
2022-11-05T22:11:29.529Z,7.10
2022-11-05T22:13:58.384Z,8.20
2022-11-05T22:16:25.474Z,7.40
2022-11-05T22:18:52.646Z,7.70
2022-11-05T22:21:20.068Z,6.80
2022-11-05T22:23:47.112Z,7.20
2022-11-05T22:26:16.720Z,7.80
2022-11-05T22:28:43.682Z,8.20
2022-11-05T22:31:16.995Z,7.60
2022-11-05T22:33:43.966Z,7.60
2022-11-05T22:36:11.949Z,8.40
2022-11-05T22:38:39.625Z,6.40
2022-11-05T22:41:18.880Z,7.10
2022-11-05T22:43:46.320Z,6.70
2022-11-05T22:46:15.756Z,7.10
2022-11-05T22:48:43.445Z,7.90
2022-11-05T22:51:21.640Z,8.90
2022-11-05T22:53:48.681Z,9.10
2022-11-05T22:56:18.021Z,8.30
2022-11-05T22:58:45.094Z,8.90
2022-11-05T23:01:13.476Z,7.30
2022-11-05T23:03:41.675Z,8.00
2022-11-05T23:06:32.701Z,8.10
2022-11-05T23:09:18.645Z,6.50
2022-11-05T23:11:48.364Z,8.00
2022-11-05T23:14:15.601Z,6.80
2022-11-05T23:17:03.328Z,8.40
2022-11-05T23:19:49.788Z,7.70
2022-11-05T23:22:38.216Z,7.20
2022-11-05T23:25:06.305Z,7.10
2022-11-05T23:27:34.780Z,7.40
2022-11-05T23:30:02.720Z,7.00
2022-11-05T23:32:30.843Z,8.10
2022-11-05T23:34:58.400Z,8.00
2022-11-05T23:37:46.933Z,7.70
2022-11-05T23:40:26.191Z,8.40
2022-11-05T23:43:12.303Z,8.20
2022-11-05T23:45:49.711Z,7.50
2022-11-05T23:48:30.641Z,7.00
2022-11-05T23:51:04.272Z,7.10
2022-11-05T23:53:33.186Z,6.90
2022-11-05T23:56:05.813Z,8.40
2022-11-05T23:58:32.788Z,9.50
